Time;durP1;ratioP1;P1;durP2;ratioP2;P2;SDS_P1;SDS_P2;PMS_P1;PMS_P2;Temp;Humidity;BMP_temperature;BMP_pressure;BME280_temperature;BME280_humidity;BME280_pressure;Samples;Min_cycle;Max_cycle;Signal;HPM_P1;HPM_P2
2023/08/02 00:02:14;;;;;;;9.85;4.00;;;;;;;;;;5032952;28;20044;-76
2023/08/02 00:04:41;;;;;;;8.77;3.92;;;;;;;;;;5035274;28;20488;-80
2023/08/02 00:07:07;;;;;;;11.73;4.70;;;;;;;;;;5030313;28;20049;-80
2023/08/02 00:09:33;;;;;;;9.32;4.00;;;;;;;;;;5049841;28;20037;-77
2023/08/02 00:12:00;;;;;;;9.30;4.45;;;;;;;;;;5022551;28;20036;-80
2023/08/02 00:14:26;;;;;;;11.88;4.28;;;;;;;;;;5039010;28;20751;-80
2023/08/02 00:16:52;;;;;;;11.50;4.78;;;;;;;;;;5033974;28;20041;-80
2023/08/02 00:19:18;;;;;;;9.02;4.85;;;;;;;;;;5015952;28;20046;-77
2023/08/02 00:21:44;;;;;;;9.88;4.45;;;;;;;;;;5032784;28;20507;-76
2023/08/02 00:24:11;;;;;;;9.00;4.50;;;;;;;;;;5040964;28;20088;-76
2023/08/02 00:26:37;;;;;;;14.60;4.85;;;;;;;;;;5033967;28;20041;-76
2023/08/02 00:29:03;;;;;;;13.88;4.22;;;;;;;;;;5051637;28;20052;-77
2023/08/02 00:31:29;;;;;;;10.57;3.30;;;;;;;;;;5052073;28;20055;-77
2023/08/02 00:33:55;;;;;;;8.23;3.95;;;;;;;;;;5020123;28;20041;-77
2023/08/02 00:36:21;;;;;;;9.32;3.97;;;;;;;;;;5007211;28;20087;-77
2023/08/02 00:38:47;;;;;;;12.25;4.60;;;;;;;;;;5035123;28;20041;-76
2023/08/02 00:41:13;;;;;;;9.57;4.10;;;;;;;;;;5032339;28;20063;-77
2023/08/02 00:43:40;;;;;;;11.93;3.92;;;;;;;;;;5051743;28;20073;-76
2023/08/02 00:46:07;;;;;;;9.70;3.65;;;;;;;;;;5051468;28;20084;-76
2023/08/02 00:48:34;;;;;;;8.00;3.40;;;;;;;;;;5044319;28;20072;-76
2023/08/02 00:51:00;;;;;;;8.15;3.88;;;;;;;;;;5036019;28;20040;-77
2023/08/02 00:53:26;;;;;;;10.13;3.92;;;;;;;;;;5039853;28;20079;-77
2023/08/02 00:55:53;;;;;;;12.13;3.92;;;;;;;;;;5035931;28;20115;-77
2023/08/02 00:58:19;;;;;;;9.82;4.20;;;;;;;;;;5050410;28;20410;-77
2023/08/02 01:00:46;;;;;;;9.07;4.10;;;;;;;;;;5022667;28;20442;-77
2023/08/02 01:03:12;;;;;;;9.55;3.97;;;;;;;;;;5049908;28;20043;-77
2023/08/02 01:05:43;;;;;;;10.88;4.22;;;;;;;;;;5024889;28;20041;-77
2023/08/02 01:08:12;;;;;;;11.52;3.97;;;;;;;;;;5046887;28;20041;-77
2023/08/02 01:10:46;;;;;;;7.00;3.90;;;;;;;;;;5025445;28;20534;-77
2023/08/02 01:13:14;;;;;;;12.82;4.15;;;;;;;;;;5047950;28;20124;-77
2023/08/02 01:15:41;;;;;;;7.50;3.72;;;;;;;;;;5042189;28;20060;-77
2023/08/02 01:18:07;;;;;;;8.63;4.13;;;;;;;;;;5030061;28;20041;-77
2023/08/02 01:20:33;;;;;;;11.32;4.20;;;;;;;;;;5042153;28;20040;-77
2023/08/02 01:22:59;;;;;;;9.95;4.55;;;;;;;;;;5039052;28;20045;-76
2023/08/02 01:25:26;;;;;;;9.00;4.32;;;;;;;;;;5037819;28;20506;-76
2023/08/02 01:27:54;;;;;;;10.70;4.40;;;;;;;;;;5048186;28;20429;-77
2023/08/02 01:30:23;;;;;;;12.20;4.32;;;;;;;;;;5048672;28;20029;-76
2023/08/02 01:32:50;;;;;;;14.05;4.60;;;;;;;;;;5015254;28;20042;-77
2023/08/02 01:35:16;;;;;;;9.60;4.18;;;;;;;;;;5040573;28;20406;-76
2023/08/02 01:37:42;;;;;;;10.63;4.32;;;;;;;;;;5024649;28;20132;-76
2023/08/02 01:40:09;;;;;;;10.25;4.30;;;;;;;;;;5026449;28;20049;-76
2023/08/02 01:42:36;;;;;;;11.57;4.85;;;;;;;;;;5037937;28;20077;-77
2023/08/02 01:45:02;;;;;;;10.57;4.20;;;;;;;;;;5017458;28;20037;-77
2023/08/02 01:47:28;;;;;;;13.20;4.40;;;;;;;;;;5051026;28;20041;-77
2023/08/02 01:49:54;;;;;;;11.18;4.45;;;;;;;;;;5037656;28;20131;-77
2023/08/02 01:52:20;;;;;;;14.10;4.75;;;;;;;;;;5050126;28;20481;-77
2023/08/02 01:54:46;;;;;;;11.20;4.40;;;;;;;;;;5044335;28;20080;-77
2023/08/02 01:57:12;;;;;;;16.02;4.60;;;;;;;;;;5018236;28;20536;-77
2023/08/02 01:59:38;;;;;;;14.73;4.82;;;;;;;;;;5040302;28;20041;-77
2023/08/02 02:02:04;;;;;;;12.88;5.05;;;;;;;;;;5040651;28;20041;-81
2023/08/02 02:04:30;;;;;;;13.63;5.20;;;;;;;;;;5032508;28;20052;-82
2023/08/02 02:06:56;;;;;;;13.77;5.07;;;;;;;;;;5025887;28;20048;-82
2023/08/02 02:09:22;;;;;;;12.90;4.63;;;;;;;;;;5034071;28;20503;-82
2023/08/02 02:11:49;;;;;;;16.23;5.00;;;;;;;;;;5017868;28;20102;-82
2023/08/02 02:14:15;;;;;;;22.10;5.05;;;;;;;;;;5014092;28;20041;-85
2023/08/02 02:16:41;;;;;;;19.33;5.45;;;;;;;;;;5026520;28;20053;-82
2023/08/02 02:19:07;;;;;;;16.88;5.97;;;;;;;;;;5013781;28;20041;-81
2023/08/02 02:21:33;;;;;;;19.48;5.20;;;;;;;;;;5023823;28;20072;-83
2023/08/02 02:23:59;;;;;;;20.35;5.63;;;;;;;;;;5001435;28;20072;-81
2023/08/02 02:26:26;;;;;;;19.58;5.90;;;;;;;;;;5021881;28;20045;-81
2023/08/02 02:28:52;;;;;;;15.10;5.55;;;;;;;;;;5034413;28;20530;-81
2023/08/02 02:31:18;;;;;;;20.80;6.60;;;;;;;;;;5033108;28;20037;-81
2023/08/02 02:33:44;;;;;;;16.92;6.13;;;;;;;;;;5030525;28;20259;-80
2023/08/02 02:36:10;;;;;;;14.63;6.30;;;;;;;;;;5033906;28;20052;-82
2023/08/02 02:38:36;;;;;;;16.80;6.05;;;;;;;;;;5025327;28;20081;-80
2023/08/02 02:41:02;;;;;;;22.95;6.60;;;;;;;;;;5017751;28;20049;-80
2023/08/02 02:43:29;;;;;;;23.40;7.30;;;;;;;;;;5001897;28;20156;-81
2023/08/02 02:45:55;;;;;;;20.13;6.82;;;;;;;;;;5005214;28;20040;-80
2023/08/02 02:48:21;;;;;;;22.77;6.57;;;;;;;;;;5021179;28;20049;-81
2023/08/02 02:50:47;;;;;;;22.08;6.97;;;;;;;;;;5037796;28;20099;-81
2023/08/02 02:53:13;;;;;;;24.77;6.55;;;;;;;;;;5020474;28;20495;-83
2023/08/02 02:55:39;;;;;;;18.27;6.70;;;;;;;;;;5035860;28;20061;-79
2023/08/02 02:58:05;;;;;;;21.33;6.18;;;;;;;;;;5023972;28;20152;-82
2023/08/02 03:00:32;;;;;;;22.02;7.13;;;;;;;;;;5045900;28;20060;-83
2023/08/02 03:02:58;;;;;;;20.55;6.80;;;;;;;;;;5034599;28;20056;-81
2023/08/02 03:05:24;;;;;;;19.95;7.07;;;;;;;;;;5025122;28;20052;-81
2023/08/02 03:07:50;;;;;;;22.73;6.72;;;;;;;;;;5046278;28;20033;-81
2023/08/02 03:10:16;;;;;;;19.65;6.75;;;;;;;;;;5054044;28;20409;-80
2023/08/02 03:12:42;;;;;;;20.42;6.40;;;;;;;;;;5028731;28;20033;-78
2023/08/02 03:15:08;;;;;;;18.13;6.38;;;;;;;;;;5037421;28;20037;-77
2023/08/02 03:17:34;;;;;;;19.80;6.05;;;;;;;;;;5036930;28;20037;-77
2023/08/02 03:20:01;;;;;;;22.83;6.82;;;;;;;;;;5039930;28;20484;-77
2023/08/02 03:22:28;;;;;;;20.63;5.85;;;;;;;;;;5017869;28;20041;-82
2023/08/02 03:24:54;;;;;;;20.50;6.35;;;;;;;;;;5034703;28;20045;-81
2023/08/02 03:27:20;;;;;;;17.42;6.18;;;;;;;;;;5045678;28;20041;-81
2023/08/02 03:29:46;;;;;;;16.17;6.35;;;;;;;;;;5043579;28;20045;-80
2023/08/02 03:32:12;;;;;;;25.63;7.68;;;;;;;;;;5050409;28;20064;-81
2023/08/02 03:34:39;;;;;;;18.70;6.35;;;;;;;;;;5053191;28;20123;-85
2023/08/02 03:37:05;;;;;;;21.63;7.07;;;;;;;;;;5033792;28;20041;-79
2023/08/02 03:39:31;;;;;;;19.13;6.75;;;;;;;;;;5040088;28;20048;-83
2023/08/02 03:41:57;;;;;;;17.60;6.68;;;;;;;;;;5047989;28;20391;-79
2023/08/02 03:44:23;;;;;;;15.68;7.15;;;;;;;;;;5052485;28;20047;-80
2023/08/02 03:46:49;;;;;;;18.23;6.90;;;;;;;;;;5035197;28;20055;-80
2023/08/02 03:49:15;;;;;;;18.08;7.20;;;;;;;;;;5046106;28;20049;-81
2023/08/02 03:51:41;;;;;;;21.35;7.20;;;;;;;;;;5038257;28;20040;-80
2023/08/02 03:54:07;;;;;;;19.60;7.10;;;;;;;;;;5026736;28;20484;-81
2023/08/02 03:56:34;;;;;;;17.05;6.82;;;;;;;;;;5035578;28;20045;-83
2023/08/02 03:59:00;;;;;;;18.80;7.53;;;;;;;;;;5035411;28;20045;-79
2023/08/02 04:01:26;;;;;;;15.38;7.63;;;;;;;;;;5039569;28;20180;-78
2023/08/02 04:03:52;;;;;;;19.65;7.70;;;;;;;;;;5048156;28;20399;-80
2023/08/02 04:06:18;;;;;;;15.25;7.25;;;;;;;;;;5052011;28;20384;-81
2023/08/02 04:08:44;;;;;;;17.40;6.88;;;;;;;;;;5040972;28;20049;-79
2023/08/02 04:11:10;;;;;;;19.33;7.57;;;;;;;;;;5018990;28;20479;-81
2023/08/02 04:13:36;;;;;;;21.73;7.82;;;;;;;;;;5046837;28;20043;-80
2023/08/02 04:16:02;;;;;;;16.05;7.13;;;;;;;;;;5017197;28;20049;-80
2023/08/02 04:18:29;;;;;;;21.23;7.28;;;;;;;;;;5051678;28;20391;-80
2023/08/02 04:20:55;;;;;;;17.13;7.47;;;;;;;;;;5023180;28;20128;-80
2023/08/02 04:23:21;;;;;;;15.40;6.78;;;;;;;;;;5039945;28;20515;-80
2023/08/02 04:25:47;;;;;;;17.02;7.68;;;;;;;;;;5051998;28;20041;-84
2023/08/02 04:28:13;;;;;;;19.23;7.47;;;;;;;;;;5045197;28;20170;-80
2023/08/02 04:30:39;;;;;;;20.52;7.35;;;;;;;;;;5042054;28;20136;-80
2023/08/02 04:33:06;;;;;;;18.13;7.22;;;;;;;;;;5046619;28;20033;-81
2023/08/02 04:35:32;;;;;;;15.90;7.25;;;;;;;;;;5042678;28;20503;-81
2023/08/02 04:37:58;;;;;;;22.23;7.35;;;;;;;;;;5052114;28;20399;-81
2023/08/02 04:40:24;;;;;;;17.60;7.20;;;;;;;;;;5048797;28;20040;-81
2023/08/02 04:42:51;;;;;;;21.75;7.13;;;;;;;;;;5025971;28;20045;-81
2023/08/02 04:45:17;;;;;;;16.90;6.90;;;;;;;;;;5043818;28;20373;-80
2023/08/02 04:47:43;;;;;;;17.33;7.15;;;;;;;;;;5015857;28;20423;-77
2023/08/02 04:50:10;;;;;;;15.20;7.10;;;;;;;;;;5006388;28;20126;-77
2023/08/02 04:52:36;;;;;;;13.45;6.65;;;;;;;;;;5028024;28;20037;-81
2023/08/02 04:55:02;;;;;;;19.65;6.70;;;;;;;;;;5041636;28;20033;-81
2023/08/02 04:57:28;;;;;;;18.05;6.53;;;;;;;;;;5018388;28;20055;-81
2023/08/02 04:59:54;;;;;;;14.32;6.65;;;;;;;;;;5002594;28;20132;-81
2023/08/02 05:02:29;;;;;;;17.20;6.30;;;;;;;;;;5001795;28;20045;-80
2023/08/02 05:04:55;;;;;;;18.58;6.70;;;;;;;;;;4999548;28;20048;-77
2023/08/02 05:07:21;;;;;;;16.83;7.20;;;;;;;;;;5023119;28;20075;-78
2023/08/02 05:09:47;;;;;;;12.88;6.07;;;;;;;;;;5021665;28;20049;-78
2023/08/02 05:12:13;;;;;;;17.77;6.47;;;;;;;;;;5031787;28;20098;-79
2023/08/02 05:14:40;;;;;;;15.20;7.35;;;;;;;;;;5022779;28;20085;-79
2023/08/02 05:17:07;;;;;;;16.10;6.72;;;;;;;;;;5033433;28;20043;-78
2023/08/02 05:19:34;;;;;;;12.90;6.50;;;;;;;;;;5034639;28;20511;-79
2023/08/02 05:22:00;;;;;;;14.80;6.57;;;;;;;;;;5025798;28;20040;-78
2023/08/02 05:24:26;;;;;;;14.10;6.63;;;;;;;;;;4999272;28;20652;-78
2023/08/02 05:26:52;;;;;;;13.93;6.53;;;;;;;;;;5014847;28;20132;-77
2023/08/02 05:29:18;;;;;;;14.70;7.15;;;;;;;;;;5051910;28;20041;-79
2023/08/02 05:31:44;;;;;;;13.90;7.03;;;;;;;;;;5021962;28;20037;-78
2023/08/02 05:34:10;;;;;;;18.80;7.15;;;;;;;;;;5026184;28;20072;-77
2023/08/02 05:36:36;;;;;;;16.85;7.28;;;;;;;;;;5023369;28;20522;-78
2023/08/02 05:39:03;;;;;;;18.52;7.50;;;;;;;;;;5020001;28;20440;-77
2023/08/02 05:41:29;;;;;;;16.65;6.35;;;;;;;;;;5023814;28;20380;-71
2023/08/02 05:43:55;;;;;;;18.92;7.07;;;;;;;;;;5025263;28;20048;-71
2023/08/02 05:46:21;;;;;;;15.32;6.97;;;;;;;;;;5034398;28;20072;-78
2023/08/02 05:48:49;;;;;;;18.08;7.18;;;;;;;;;;5013740;28;20399;-77
2023/08/02 05:51:16;;;;;;;19.20;6.93;;;;;;;;;;5007053;28;20044;-76
2023/08/02 05:53:42;;;;;;;17.13;6.38;;;;;;;;;;5032822;28;20550;-75
2023/08/02 05:56:08;;;;;;;16.23;6.35;;;;;;;;;;5040044;28;20057;-76
2023/08/02 05:58:34;;;;;;;13.38;6.28;;;;;;;;;;5050134;28;20055;-79
2023/08/02 06:01:00;;;;;;;15.68;6.43;;;;;;;;;;5033618;28;20037;-76
2023/08/02 06:03:26;;;;;;;14.45;6.35;;;;;;;;;;5020777;28;20041;-82
2023/08/02 06:05:52;;;;;;;13.60;6.47;;;;;;;;;;5049367;28;20045;-77
2023/08/02 06:08:19;;;;;;;18.20;6.63;;;;;;;;;;5048593;28;20092;-78
2023/08/02 06:10:45;;;;;;;17.52;6.82;;;;;;;;;;5042098;28;20083;-77
2023/08/02 06:13:11;;;;;;;12.27;6.30;;;;;;;;;;5045806;28;20498;-78
2023/08/02 06:15:37;;;;;;;12.73;6.13;;;;;;;;;;5021835;28;20119;-77
2023/08/02 06:18:03;;;;;;;14.50;5.90;;;;;;;;;;5026489;28;20503;-83
2023/08/02 06:20:29;;;;;;;12.93;6.00;;;;;;;;;;5038198;28;20041;-78
2023/08/02 06:22:56;;;;;;;13.63;5.82;;;;;;;;;;5054292;28;20055;-78
2023/08/02 06:25:22;;;;;;;18.05;6.03;;;;;;;;;;5035484;28;20076;-77
2023/08/02 06:27:48;;;;;;;14.25;6.03;;;;;;;;;;5026885;28;20518;-83
2023/08/02 06:30:14;;;;;;;13.82;6.15;;;;;;;;;;5054987;28;20036;-80
2023/08/02 06:32:40;;;;;;;10.07;5.75;;;;;;;;;;5055741;28;20043;-83
2023/08/02 06:35:07;;;;;;;14.73;5.72;;;;;;;;;;5009654;28;20037;-81
2023/08/02 06:37:33;;;;;;;11.27;5.97;;;;;;;;;;5039832;28;20366;-79
2023/08/02 06:39:59;;;;;;;13.38;6.07;;;;;;;;;;5055557;28;20049;-81
2023/08/02 06:42:25;;;;;;;16.48;5.78;;;;;;;;;;5041342;28;20095;-78
2023/08/02 06:44:51;;;;;;;13.57;5.68;;;;;;;;;;5054760;28;20037;-79
2023/08/02 06:47:17;;;;;;;9.45;5.50;;;;;;;;;;5043530;28;20043;-82
2023/08/02 06:49:43;;;;;;;12.05;6.13;;;;;;;;;;5020605;28;20059;-82
2023/08/02 06:52:09;;;;;;;12.23;5.80;;;;;;;;;;5054799;28;20040;-84
2023/08/02 06:54:36;;;;;;;13.85;6.28;;;;;;;;;;5027903;28;20037;-80
2023/08/02 06:57:02;;;;;;;10.23;5.68;;;;;;;;;;5038006;28;20060;-83
2023/08/02 06:59:28;;;;;;;12.43;5.70;;;;;;;;;;5041342;28;20061;-83
2023/08/02 07:01:54;;;;;;;14.85;5.65;;;;;;;;;;5039733;28;20154;-82
2023/08/02 07:04:20;;;;;;;13.23;5.35;;;;;;;;;;5010376;28;20053;-80
2023/08/02 07:06:46;;;;;;;14.25;5.82;;;;;;;;;;5037498;28;20045;-83
2023/08/02 07:09:14;;;;;;;11.88;5.13;;;;;;;;;;5037890;28;20075;-81
2023/08/02 07:11:40;;;;;;;10.65;5.40;;;;;;;;;;5037740;28;20044;-80
2023/08/02 07:14:06;;;;;;;8.63;5.00;;;;;;;;;;5055893;28;20096;-84
2023/08/02 07:16:32;;;;;;;12.23;5.55;;;;;;;;;;5038036;28;20072;-80
2023/08/02 07:19:02;;;;;;;9.98;5.15;;;;;;;;;;5049513;28;20380;-83
2023/08/02 07:21:29;;;;;;;10.60;4.90;;;;;;;;;;5034122;28;20048;-83
2023/08/02 07:23:55;;;;;;;14.90;5.63;;;;;;;;;;5034846;28;20080;-83
2023/08/02 07:26:24;;;;;;;9.55;4.40;;;;;;;;;;5021167;28;20037;-84
2023/08/02 07:28:50;;;;;;;11.40;5.30;;;;;;;;;;5037254;28;20037;-84
2023/08/02 07:31:16;;;;;;;10.48;4.88;;;;;;;;;;5053590;28;20402;-81
2023/08/02 07:33:45;;;;;;;13.82;4.72;;;;;;;;;;5054118;28;20163;-83
2023/08/02 07:36:15;;;;;;;12.10;4.47;;;;;;;;;;5037390;28;20048;-82
2023/08/02 07:38:41;;;;;;;12.13;4.32;;;;;;;;;;5039806;28;20046;-81
2023/08/02 07:41:07;;;;;;;7.78;4.20;;;;;;;;;;5054920;28;20041;-83
2023/08/02 07:43:33;;;;;;;10.82;4.30;;;;;;;;;;5036804;28;20036;-79
2023/08/02 07:46:00;;;;;;;10.27;3.80;;;;;;;;;;5038206;28;20064;-82
2023/08/02 07:48:26;;;;;;;8.35;4.35;;;;;;;;;;5039183;28;20052;-80
2023/08/02 07:50:52;;;;;;;9.20;4.72;;;;;;;;;;5040906;28;20388;-83
2023/08/02 07:53:18;;;;;;;9.05;4.43;;;;;;;;;;5047344;28;20168;-81
2023/08/02 07:55:44;;;;;;;12.70;4.88;;;;;;;;;;5047443;28;20060;-79
2023/08/02 07:58:10;;;;;;;12.23;4.68;;;;;;;;;;5052727;28;20060;-83
2023/08/02 08:00:36;;;;;;;12.27;4.80;;;;;;;;;;5036853;28;20060;-79
2023/08/02 08:03:03;;;;;;;10.30;4.88;;;;;;;;;;5038482;28;20053;-81
2023/08/02 08:05:30;;;;;;;12.35;5.30;;;;;;;;;;5052993;28;20045;-83
2023/08/02 08:07:56;;;;;;;11.73;5.35;;;;;;;;;;5052248;28;20044;-79
2023/08/02 08:10:22;;;;;;;10.23;5.00;;;;;;;;;;5052443;28;20099;-77
2023/08/02 08:12:48;;;;;;;11.07;5.18;;;;;;;;;;5052622;28;20120;-79
2023/08/02 08:15:14;;;;;;;12.70;4.95;;;;;;;;;;5035381;28;20391;-83
2023/08/02 08:17:40;;;;;;;13.23;5.40;;;;;;;;;;5043245;28;20041;-76
2023/08/02 08:20:06;;;;;;;11.45;5.13;;;;;;;;;;5046856;28;20040;-82
2023/08/02 08:22:33;;;;;;;13.07;6.20;;;;;;;;;;5052552;28;20045;-82
2023/08/02 08:24:59;;;;;;;13.82;5.25;;;;;;;;;;5022373;28;20065;-79
2023/08/02 08:27:25;;;;;;;12.77;5.97;;;;;;;;;;5046004;28;20034;-78
2023/08/02 08:29:51;;;;;;;11.82;5.57;;;;;;;;;;4999870;28;20120;-78
2023/08/02 08:32:17;;;;;;;9.70;5.40;;;;;;;;;;5045691;28;20042;-76
2023/08/02 08:34:43;;;;;;;11.73;5.70;;;;;;;;;;5041716;28;20040;-78
2023/08/02 08:37:09;;;;;;;10.82;5.38;;;;;;;;;;5036713;28;20068;-79
2023/08/02 08:39:37;;;;;;;12.93;5.88;;;;;;;;;;5052079;28;20049;-79
2023/08/02 08:42:10;;;;;;;10.63;6.55;;;;;;;;;;5051506;28;20053;-79
2023/08/02 08:44:37;;;;;;;12.63;5.85;;;;;;;;;;5052297;28;20080;-77
2023/08/02 08:47:04;;;;;;;12.05;6.80;;;;;;;;;;5035178;28;20048;-79
2023/08/02 08:49:30;;;;;;;13.85;7.13;;;;;;;;;;5020451;28;20087;-81
2023/08/02 08:51:57;;;;;;;11.82;7.00;;;;;;;;;;5038931;28;20037;-78
2023/08/02 08:54:25;;;;;;;11.90;7.10;;;;;;;;;;5032258;28;20124;-76
2023/08/02 08:56:51;;;;;;;15.32;8.25;;;;;;;;;;5051124;28;20057;-78
2023/08/02 08:59:18;;;;;;;12.10;7.32;;;;;;;;;;5023374;28;20507;-79
2023/08/02 09:01:45;;;;;;;13.02;8.13;;;;;;;;;;5029536;28;20041;-78
2023/08/02 09:04:11;;;;;;;13.07;8.10;;;;;;;;;;5051319;28;20103;-76
2023/08/02 09:06:37;;;;;;;12.38;7.57;;;;;;;;;;5032722;28;20402;-78
2023/08/02 09:09:04;;;;;;;13.63;7.95;;;;;;;;;;5040613;28;20043;-78
2023/08/02 09:11:30;;;;;;;13.55;7.88;;;;;;;;;;5020774;28;20038;-77
2023/08/02 09:14:10;;;;;;;11.60;7.72;;;;;;;;;;5051699;28;20479;-80
2023/08/02 09:16:39;;;;;;;12.57;7.90;;;;;;;;;;5051454;28;20495;-75
2023/08/02 09:19:21;;;;;;;9.93;7.25;;;;;;;;;;5051245;28;20040;-76
2023/08/02 09:21:47;;;;;;;11.35;7.47;;;;;;;;;;5051293;28;20045;-77
2023/08/02 09:24:13;;;;;;;10.93;7.20;;;;;;;;;;5044184;28;20385;-78
2023/08/02 09:26:39;;;;;;;11.55;7.40;;;;;;;;;;5044059;28;20387;-75
2023/08/02 09:29:07;;;;;;;10.38;7.32;;;;;;;;;;5017778;28;20060;-77
2023/08/02 09:31:39;;;;;;;9.48;7.60;;;;;;;;;;5039857;28;20041;-77
2023/08/02 09:34:05;;;;;;;9.65;6.47;;;;;;;;;;5044903;28;20524;-77
2023/08/02 09:36:32;;;;;;;9.48;6.63;;;;;;;;;;5041331;28;20576;-75
2023/08/02 09:39:04;;;;;;;9.02;6.32;;;;;;;;;;5031711;28;20052;-76
2023/08/02 09:41:31;;;;;;;9.43;6.07;;;;;;;;;;5040390;28;20384;-76
2023/08/02 09:43:57;;;;;;;10.35;5.75;;;;;;;;;;5050865;28;20048;-74
2023/08/02 09:46:24;;;;;;;8.02;6.03;;;;;;;;;;5050187;28;20044;-74
2023/08/02 09:48:50;;;;;;;6.72;4.93;;;;;;;;;;5050558;28;20090;-75
2023/08/02 09:51:16;;;;;;;8.35;5.82;;;;;;;;;;5049965;28;20055;-74
2023/08/02 09:53:53;;;;;;;7.65;6.03;;;;;;;;;;5038769;28;20045;-73
2023/08/02 09:56:19;;;;;;;7.30;5.20;;;;;;;;;;5028334;28;20060;-74
2023/08/02 09:58:46;;;;;;;7.28;5.57;;;;;;;;;;5030875;28;20056;-74
2023/08/02 10:01:12;;;;;;;7.43;4.72;;;;;;;;;;5043764;28;20052;-75
2023/08/02 10:03:38;;;;;;;6.20;4.22;;;;;;;;;;5036414;28;20040;-73
2023/08/02 10:06:06;;;;;;;7.00;5.22;;;;;;;;;;5051747;28;20431;-73
2023/08/02 10:08:33;;;;;;;8.38;4.55;;;;;;;;;;5029999;28;20117;-73
2023/08/02 10:11:00;;;;;;;6.47;5.05;;;;;;;;;;5040641;28;20044;-74
2023/08/02 10:13:26;;;;;;;6.38;4.18;;;;;;;;;;5031473;28;20289;-74
2023/08/02 10:15:53;;;;;;;5.00;4.03;;;;;;;;;;5014332;28;20045;-73
2023/08/02 10:18:19;;;;;;;5.60;4.13;;;;;;;;;;5044359;28;20040;-81
2023/08/02 10:20:46;;;;;;;5.03;3.92;;;;;;;;;;5027801;28;20041;-84
2023/08/02 10:23:12;;;;;;;5.40;3.83;;;;;;;;;;5014223;28;20381;-80
2023/08/02 10:25:38;;;;;;;5.90;3.20;;;;;;;;;;5030686;28;20041;-86
2023/08/02 10:28:04;;;;;;;4.90;3.67;;;;;;;;;;5041421;28;20498;-75
2023/08/02 10:30:31;;;;;;;5.15;3.70;;;;;;;;;;5017010;28;20509;-76
2023/08/02 10:33:29;;;;;;;5.18;3.50;;;;;;;;;;5039090;28;20124;-75
2023/08/02 10:36:02;;;;;;;4.80;3.97;;;;;;;;;;4996677;28;20099;-76
2023/08/02 10:38:31;;;;;;;5.68;3.60;;;;;;;;;;5037920;28;20410;-76
2023/08/02 10:41:02;;;;;;;5.15;3.80;;;;;;;;;;5032305;28;20040;-76
2023/08/02 10:43:28;;;;;;;3.95;3.40;;;;;;;;;;5050876;28;20053;-77
2023/08/02 10:46:13;;;;;;;5.72;4.20;;;;;;;;;;5051509;28;20056;-76
2023/08/02 10:48:39;;;;;;;5.20;3.80;;;;;;;;;;5021935;28;20052;-77
2023/08/02 10:51:05;;;;;;;5.80;4.20;;;;;;;;;;5050171;28;20056;-78
2023/08/02 10:53:31;;;;;;;4.63;3.80;;;;;;;;;;5036008;28;20060;-76
2023/08/02 10:56:03;;;;;;;5.80;4.55;;;;;;;;;;5049832;28;20088;-75
2023/08/02 10:58:49;;;;;;;4.72;4.22;;;;;;;;;;5049718;28;20127;-85
2023/08/02 11:01:15;;;;;;;5.72;3.80;;;;;;;;;;5053793;28;20045;-85
2023/08/02 11:03:41;;;;;;;4.53;4.13;;;;;;;;;;5033730;28;20041;-83
2023/08/02 11:06:07;;;;;;;5.05;4.25;;;;;;;;;;5017581;28;20553;-85
2023/08/02 11:08:46;;;;;;;4.20;3.50;;;;;;;;;;5037610;28;20045;-84
2023/08/02 11:11:12;;;;;;;5.22;3.60;;;;;;;;;;5034235;28;20063;-86
2023/08/02 11:13:40;;;;;;;6.25;4.20;;;;;;;;;;5033838;28;20033;-87
2023/08/02 11:16:06;;;;;;;3.90;3.42;;;;;;;;;;5043832;28;20124;-85
2023/08/02 11:18:32;;;;;;;3.63;3.30;;;;;;;;;;5037214;28;20083;-85
2023/08/02 11:21:08;;;;;;;4.10;3.08;;;;;;;;;;5033956;28;20037;-82
2023/08/02 11:23:34;;;;;;;3.50;3.20;;;;;;;;;;5033263;28;20392;-84
2023/08/02 11:26:07;;;;;;;3.10;2.70;;;;;;;;;;5054187;28;20045;-87
2023/08/02 11:28:43;;;;;;;6.30;2.60;;;;;;;;;;5053206;28;20056;-81
2023/08/02 11:31:10;;;;;;;3.28;2.88;;;;;;;;;;5028986;28;20128;-83
2023/08/02 11:33:37;;;;;;;3.05;2.75;;;;;;;;;;5033595;28;20041;-85
2023/08/02 11:36:03;;;;;;;4.10;2.70;;;;;;;;;;5017190;28;20046;-82
2023/08/02 11:38:30;;;;;;;3.88;3.00;;;;;;;;;;5045658;28;20554;-80
2023/08/02 11:40:56;;;;;;;3.20;2.60;;;;;;;;;;5019159;28;20274;-84
2023/08/02 11:43:38;;;;;;;3.20;2.90;;;;;;;;;;5023276;28;20045;-82
2023/08/02 11:46:14;;;;;;;3.65;3.20;;;;;;;;;;5039341;28;20526;-82
2023/08/02 11:48:41;;;;;;;5.30;3.50;;;;;;;;;;5036524;28;20033;-81
2023/08/02 11:51:07;;;;;;;3.83;3.42;;;;;;;;;;5053216;28;20041;-80
2023/08/02 11:53:33;;;;;;;4.03;3.15;;;;;;;;;;5046618;28;20065;-82
2023/08/02 11:56:00;;;;;;;5.25;3.78;;;;;;;;;;5037640;28;20509;-79
2023/08/02 11:58:27;;;;;;;3.55;3.20;;;;;;;;;;5030577;28;20454;-81
2023/08/02 12:00:53;;;;;;;5.88;3.05;;;;;;;;;;5052854;28;20041;-79
2023/08/02 12:03:20;;;;;;;3.80;2.90;;;;;;;;;;5039090;28;20128;-80
2023/08/02 12:05:46;;;;;;;5.00;3.10;;;;;;;;;;5053541;28;20098;-79
2023/08/02 12:08:14;;;;;;;3.60;2.85;;;;;;;;;;5038568;28;20110;-80
2023/08/02 12:10:41;;;;;;;3.08;2.78;;;;;;;;;;5044949;28;20037;-80
2023/08/02 12:13:12;;;;;;;3.30;2.70;;;;;;;;;;5032956;28;20057;-85
2023/08/02 12:15:39;;;;;;;3.10;2.80;;;;;;;;;;5039124;28;20037;-80
2023/08/02 12:18:06;;;;;;;3.92;2.78;;;;;;;;;;5040164;28;20052;-80
2023/08/02 12:20:33;;;;;;;2.92;2.53;;;;;;;;;;5051064;28;20071;-81
2023/08/02 12:22:59;;;;;;;2.97;2.40;;;;;;;;;;5036174;28;20483;-81
2023/08/02 12:25:25;;;;;;;4.47;2.75;;;;;;;;;;5037666;28;20079;-85
2023/08/02 12:28:02;;;;;;;4.07;3.00;;;;;;;;;;5052817;28;20029;-85
2023/08/02 12:30:28;;;;;;;3.75;2.20;;;;;;;;;;5037792;28;20069;-82
2023/08/02 12:32:54;;;;;;;3.97;2.10;;;;;;;;;;5052378;28;20040;-82
2023/08/02 12:35:20;;;;;;;2.92;2.00;;;;;;;;;;5035471;28;20041;-81
2023/08/02 12:37:47;;;;;;;3.95;1.95;;;;;;;;;;5052100;28;20134;-76
2023/08/02 12:40:13;;;;;;;2.65;1.60;;;;;;;;;;5022662;28;20047;-76
2023/08/02 12:42:39;;;;;;;3.95;2.00;;;;;;;;;;5051257;28;20036;-81
2023/08/02 12:45:05;;;;;;;2.78;2.10;;;;;;;;;;5051988;28;20045;-81
2023/08/02 12:47:31;;;;;;;2.85;1.90;;;;;;;;;;5051695;28;20458;-81
2023/08/02 12:49:57;;;;;;;4.28;2.10;;;;;;;;;;5031789;28;20068;-76
2023/08/02 12:52:23;;;;;;;3.33;1.88;;;;;;;;;;5051776;28;20037;-76
2023/08/02 12:54:49;;;;;;;4.63;1.90;;;;;;;;;;5030533;28;20036;-76
2023/08/02 12:57:16;;;;;;;3.47;1.60;;;;;;;;;;5034880;28;20052;-75
2023/08/02 12:59:43;;;;;;;5.00;1.80;;;;;;;;;;5037251;28;20042;-76
2023/08/02 13:02:09;;;;;;;4.88;1.80;;;;;;;;;;5045414;28;20033;-75
2023/08/02 13:04:35;;;;;;;4.82;1.80;;;;;;;;;;5031348;28;20048;-76
2023/08/02 13:07:01;;;;;;;5.57;1.63;;;;;;;;;;5034070;28;20037;-75
2023/08/02 13:09:27;;;;;;;6.65;1.80;;;;;;;;;;5051222;28;20049;-76
2023/08/02 13:11:53;;;;;;;3.50;1.48;;;;;;;;;;5047831;28;20120;-76
2023/08/02 13:14:20;;;;;;;5.28;1.60;;;;;;;;;;5021346;28;20659;-76
2023/08/02 13:16:46;;;;;;;6.20;1.83;;;;;;;;;;5031053;28;20041;-76
2023/08/02 13:19:12;;;;;;;5.65;1.88;;;;;;;;;;5032720;28;20038;-75
2023/08/02 13:21:38;;;;;;;4.47;1.60;;;;;;;;;;5031785;28;20041;-82
2023/08/02 13:24:04;;;;;;;6.32;1.80;;;;;;;;;;5030991;28;20048;-82
2023/08/02 13:26:30;;;;;;;5.68;1.58;;;;;;;;;;5042450;28;20041;-81
2023/08/02 13:28:58;;;;;;;8.63;1.55;;;;;;;;;;5047728;28;20060;-77
2023/08/02 13:31:24;;;;;;;5.13;1.00;;;;;;;;;;5041208;28;20036;-76
2023/08/02 13:33:51;;;;;;;3.20;0.68;;;;;;;;;;5031799;28;20465;-76
2023/08/02 13:36:18;;;;;;;4.28;0.80;;;;;;;;;;5039561;28;20037;-76
2023/08/02 13:38:44;;;;;;;3.97;1.00;;;;;;;;;;5037913;28;20045;-78
2023/08/02 13:41:10;;;;;;;4.80;0.90;;;;;;;;;;5051118;28;20451;-81
2023/08/02 13:43:36;;;;;;;4.63;1.00;;;;;;;;;;5030857;28;20080;-80
2023/08/02 13:46:02;;;;;;;4.28;0.70;;;;;;;;;;5050589;28;20049;-80
2023/08/02 13:48:28;;;;;;;4.88;1.00;;;;;;;;;;5034256;28;20045;-79
2023/08/02 13:50:54;;;;;;;4.68;1.02;;;;;;;;;;5037753;28;20041;-79
2023/08/02 13:53:21;;;;;;;4.75;1.02;;;;;;;;;;5045087;28;20040;-77
2023/08/02 13:55:47;;;;;;;3.03;0.98;;;;;;;;;;5014198;28;20107;-78
2023/08/02 13:58:13;;;;;;;5.07;1.00;;;;;;;;;;4996353;28;20167;-82
2023/08/02 14:00:39;;;;;;;4.32;1.08;;;;;;;;;;4990587;28;20056;-77
2023/08/02 14:03:06;;;;;;;5.78;1.10;;;;;;;;;;5034136;28;20056;-76
2023/08/02 14:05:32;;;;;;;6.45;0.90;;;;;;;;;;5034038;28;20067;-79
2023/08/02 14:07:58;;;;;;;4.53;0.90;;;;;;;;;;5017368;28;20134;-85
2023/08/02 14:10:24;;;;;;;4.35;0.95;;;;;;;;;;5000482;28;20073;-77
2023/08/02 14:12:51;;;;;;;7.68;1.10;;;;;;;;;;5034092;28;20120;-81
2023/08/02 14:15:17;;;;;;;7.13;1.00;;;;;;;;;;5030867;28;20389;-79
2023/08/02 14:17:43;;;;;;;5.47;0.98;;;;;;;;;;5003419;28;20053;-80
2023/08/02 14:20:09;;;;;;;8.27;1.17;;;;;;;;;;5015736;28;20041;-79
2023/08/02 14:22:35;;;;;;;4.30;1.13;;;;;;;;;;5030932;28;20537;-79
2023/08/02 14:25:01;;;;;;;7.95;1.15;;;;;;;;;;5034353;28;20453;-81
2023/08/02 14:27:27;;;;;;;7.78;1.35;;;;;;;;;;5033700;28;20045;-81
2023/08/02 14:29:54;;;;;;;8.02;1.50;;;;;;;;;;5033643;28;20033;-77
2023/08/02 14:32:20;;;;;;;6.50;1.17;;;;;;;;;;5013728;28;20120;-75
2023/08/02 14:34:46;;;;;;;5.30;1.10;;;;;;;;;;5025605;28;20060;-76